< < Back
Terminal Aerodrome Forecast


Current Version              Previous Versions:   1  2  3  4  5  6  7  8  9  

Terminal Aerodrome Forecast

592
FTUS44 KBMX 222300
TAFANB
TAF
KANB 222333Z 2300/2324 09006KT 6SM BR VCSH OVC011
     FM230200 10006KT 4SM BR VCSH OVC007
     FM230600 09008KT 2SM BR VCSH OVC003
      TEMPO 2311/2315 1/4SM FG VV002
     FM231600 12007KT 4SM BR OVC007
     FM231900 14007KT 4SM SHRA SCT007 BKN015=

Latest METAR

078
SAUS70 KWBC 230300 RRB
MTRANB
METAR KANB 230253Z AUTO 07010KT 4SM -RA BR OVC009 09/08 A2985 RMK AO2
RAB31 CIG 007V014 SLP113 P0012 60013 T00940078 55001


USA.gov is the U.S. government's official web portal to all federal, state and local government web resources and services.